createdAt,value
2019-04-04T00:02:14.172Z,54.70
2019-04-04T00:04:43.843Z,91.10
2019-04-04T00:07:15.129Z,85.60
2019-04-04T00:09:44.798Z,71.80
2019-04-04T00:12:15.422Z,64.33
2019-04-04T00:17:13.913Z,75.40
2019-04-04T00:19:43.581Z,65.57
2019-04-04T00:22:14.250Z,54.80
2019-04-04T00:24:43.925Z,56.07
2019-04-04T00:27:13.861Z,55.07
2019-04-04T00:29:43.521Z,57.13
2019-04-04T00:32:13.255Z,51.87
2019-04-04T00:34:42.939Z,47.95
2019-04-04T00:37:12.611Z,48.83
2019-04-04T00:39:42.271Z,45.20
2019-04-04T00:42:11.946Z,49.73
2019-04-04T00:44:41.610Z,50.97
2019-04-04T00:47:11.248Z,53.87
2019-04-04T00:49:40.908Z,49.73
2019-04-04T00:52:10.951Z,47.53
2019-04-04T00:54:40.610Z,49.45
2019-04-04T00:57:10.272Z,50.20
2019-04-04T00:59:39.942Z,44.93
2019-04-04T01:02:09.720Z,43.40
2019-04-04T01:04:39.397Z,43.17
2019-04-04T01:07:09.026Z,53.03
2019-04-04T01:09:39.693Z,41.92
2019-04-04T01:12:09.456Z,46.73
2019-04-04T01:14:39.158Z,54.05
2019-04-04T01:17:09.439Z,51.77
2019-04-04T01:19:39.100Z,50.70
2019-04-04T01:22:08.759Z,46.80
2019-04-04T01:24:38.424Z,49.87
2019-04-04T01:27:08.066Z,55.13
2019-04-04T01:29:38.983Z,51.07
2019-04-04T01:32:09.011Z,50.92
2019-04-04T01:34:52.130Z,48.23
2019-04-04T01:37:22.130Z,51.85
2019-04-04T01:39:51.892Z,51.20
2019-04-04T01:42:21.597Z,46.70
2019-04-04T01:44:51.337Z,49.03
2019-04-04T01:47:21.018Z,61.05
2019-04-04T01:49:51.871Z,54.50
2019-04-04T01:52:22.157Z,52.33
2019-04-04T01:54:51.819Z,54.27
2019-04-04T01:57:21.604Z,53.77
2019-04-04T01:59:51.259Z,56.18
2019-04-04T02:02:21.053Z,59.80
2019-04-04T02:04:50.701Z,51.08
2019-04-04T02:07:20.366Z,55.17
2019-04-04T02:09:52.753Z,58.57
2019-04-04T02:12:22.483Z,58.13
2019-04-04T02:14:53.725Z,58.25
2019-04-04T02:17:23.463Z,66.97
2019-04-04T02:19:55.595Z,64.27
2019-04-04T02:22:24.517Z,63.08
2019-04-04T02:24:54.152Z,61.63
2019-04-04T02:27:40.509Z,56.90
2019-04-04T02:30:14.672Z,52.50
2019-04-04T02:32:59.314Z,60.38
2019-04-04T02:35:31.702Z,58.52
2019-04-04T02:38:11.857Z,52.83
2019-04-04T02:40:44.024Z,55.90
2019-04-04T02:43:13.683Z,55.03
2019-04-04T02:45:50.619Z,61.30
2019-04-04T02:48:23.352Z,54.98
2019-04-04T02:51:02.195Z,56.70
2019-04-04T02:53:32.014Z,58.78
2019-04-04T02:56:03.294Z,58.65
2019-04-04T02:59:11.975Z,54.63
2019-04-04T03:01:49.185Z,60.98
2019-04-04T03:04:20.443Z,62.47
2019-04-04T03:06:50.204Z,61.13
2019-04-04T03:09:22.589Z,59.75
2019-04-04T03:11:58.280Z,52.00
2019-04-04T03:14:42.784Z,58.25
2019-04-04T03:17:12.449Z,57.35
2019-04-04T03:19:43.800Z,65.53
2019-04-04T03:22:27.588Z,60.52
2019-04-04T03:25:01.224Z,62.53
2019-04-04T03:27:30.864Z,59.48
2019-04-04T03:30:13.176Z,55.88
2019-04-04T03:32:41.661Z,62.00
2019-04-04T03:35:15.374Z,66.57
2019-04-04T03:37:46.363Z,64.55
2019-04-04T03:40:16.242Z,58.25
2019-04-04T03:43:02.279Z,56.65
2019-04-04T03:45:35.121Z,57.85
2019-04-04T03:48:17.586Z,59.10
2019-04-04T03:50:48.470Z,60.98
2019-04-04T03:53:21.266Z,55.17
2019-04-04T03:55:51.034Z,58.35
2019-04-04T03:58:28.046Z,57.35
2019-04-04T04:01:03.710Z,57.35
2019-04-04T04:03:39.155Z,71.80
2019-04-04T04:06:09.613Z,72.08
2019-04-04T04:08:39.400Z,57.20
2019-04-04T04:11:08.870Z,60.83
2019-04-04T04:16:07.949Z,58.38
2019-04-04T04:18:37.293Z,53.98
2019-04-04T04:21:09.719Z,53.63
2019-04-04T04:23:37.681Z,55.12
2019-04-04T04:26:09.385Z,52.55
2019-04-04T04:28:38.036Z,54.55
2019-04-04T04:31:07.465Z,49.95
2019-04-04T04:33:36.922Z,52.35
2019-04-04T04:36:09.512Z,53.38
2019-04-04T04:38:37.346Z,58.85
2019-04-04T04:41:06.735Z,56.35
2019-04-04T04:43:36.124Z,64.53
2019-04-04T04:46:05.466Z,56.77
2019-04-04T04:48:34.850Z,57.90
2019-04-04T04:51:04.243Z,55.38
2019-04-04T04:53:33.706Z,53.98
2019-04-04T04:56:03.123Z,58.20
2019-04-04T04:58:32.616Z,56.77
2019-04-04T05:01:02.080Z,61.48
2019-04-04T05:03:31.419Z,59.20
2019-04-04T05:06:02.657Z,59.50
2019-04-04T05:08:31.835Z,58.73
2019-04-04T05:11:01.219Z,58.75
2019-04-04T05:13:30.595Z,59.20
2019-04-04T05:16:00.028Z,220.65
2019-04-04T05:18:29.486Z,214.63
2019-04-04T05:21:01.464Z,79.85
2019-04-04T05:23:29.901Z,54.85
2019-04-04T05:26:02.261Z,61.58
2019-04-04T05:28:42.749Z,46.80
2019-04-04T05:31:12.141Z,48.33
2019-04-04T05:33:41.520Z,50.38
2019-04-04T05:36:10.968Z,51.08
2019-04-04T05:38:42.756Z,42.43
2019-04-04T05:41:11.393Z,41.85
2019-04-04T05:43:53.510Z,45.12
2019-04-04T05:46:22.927Z,40.63
2019-04-04T05:48:52.272Z,47.98
2019-04-04T05:51:21.849Z,50.50
2019-04-04T05:53:51.349Z,43.23
2019-04-04T05:56:26.392Z,35.68
2019-04-04T05:58:57.046Z,40.10
2019-04-04T06:01:26.486Z,43.00
2019-04-04T06:03:55.845Z,43.55
2019-04-04T06:06:25.215Z,40.03
2019-04-04T06:08:54.593Z,41.68
2019-04-04T06:11:24.029Z,37.28
2019-04-04T06:13:53.480Z,35.75
2019-04-04T06:19:05.397Z,28.23
2019-04-04T06:21:34.975Z,34.40
2019-04-04T06:24:29.709Z,32.33
2019-04-04T06:27:09.144Z,28.67
2019-04-04T06:29:38.478Z,33.20
2019-04-04T06:32:07.909Z,29.23
2019-04-04T06:34:37.373Z,28.75
2019-04-04T06:37:06.765Z,34.27
2019-04-04T06:39:36.210Z,29.92
2019-04-04T06:42:14.633Z,27.22
2019-04-04T06:44:45.261Z,32.97
2019-04-04T06:47:16.535Z,28.83
2019-04-04T06:49:46.132Z,29.32
2019-04-04T06:52:16.252Z,36.80
2019-04-04T06:54:46.609Z,29.18
2019-04-04T06:57:15.985Z,30.00
2019-04-04T06:59:45.381Z,31.00
2019-04-04T07:02:14.786Z,33.18
2019-04-04T07:04:44.173Z,37.85
2019-04-04T07:07:13.634Z,36.30
2019-04-04T07:09:55.940Z,29.92
2019-04-04T07:12:28.415Z,30.30
2019-04-04T07:14:56.391Z,29.65
2019-04-04T07:17:25.797Z,26.82
2019-04-04T07:19:55.153Z,32.00
2019-04-04T07:22:24.968Z,28.05
2019-04-04T07:24:54.906Z,39.35
2019-04-04T07:27:24.299Z,32.33
2019-04-04T07:29:56.596Z,29.90
2019-04-04T07:32:24.742Z,28.32
2019-04-04T07:34:54.129Z,29.65
2019-04-04T07:37:23.494Z,27.22
2019-04-04T07:39:52.954Z,30.17
2019-04-04T07:42:22.363Z,30.77
2019-04-04T07:44:54.406Z,28.57
2019-04-04T07:47:22.755Z,26.95
2019-04-04T07:49:53.154Z,26.62
2019-04-04T07:52:23.142Z,26.68
2019-04-04T07:54:52.529Z,25.62
2019-04-04T07:57:21.906Z,28.40
2019-04-04T07:59:51.426Z,28.60
2019-04-04T08:02:20.801Z,34.48
2019-04-04T08:04:50.199Z,29.30
2019-04-04T08:07:20.657Z,27.90
2019-04-04T08:09:50.040Z,28.42
2019-04-04T08:12:19.482Z,25.02
2019-04-04T08:15:08.375Z,28.62
2019-04-04T08:17:37.756Z,31.00
2019-04-04T08:20:07.188Z,25.17
2019-04-04T08:22:39.536Z,27.67
2019-04-04T08:25:07.684Z,25.48
2019-04-04T08:30:07.743Z,21.40
2019-04-04T08:32:37.164Z,29.15
2019-04-04T08:35:07.426Z,25.68
2019-04-04T08:37:36.877Z,17.73
2019-04-04T08:40:07.619Z,24.45
2019-04-04T08:42:37.101Z,25.08
2019-04-04T08:45:07.292Z,25.62
2019-04-04T08:47:36.809Z,17.02
2019-04-04T08:50:06.364Z,22.25
2019-04-04T08:52:35.770Z,28.92
2019-04-04T08:55:06.729Z,22.87
2019-04-04T08:57:36.193Z,31.52
2019-04-04T09:00:10.151Z,25.23
2019-04-04T09:02:41.296Z,32.65
2019-04-04T09:07:42.258Z,27.98
2019-04-04T09:10:11.684Z,27.58
2019-04-04T09:12:41.103Z,27.62
2019-04-04T09:15:11.563Z,21.17
2019-04-04T09:17:40.980Z,23.55
2019-04-04T09:20:10.353Z,27.67
2019-04-04T09:22:40.795Z,21.87
2019-04-04T09:25:10.868Z,25.32
2019-04-04T09:27:40.518Z,35.40
2019-04-04T09:30:09.942Z,23.07
2019-04-04T09:32:39.401Z,20.02
2019-04-04T09:35:08.800Z,21.70
2019-04-04T09:37:38.240Z,22.45
2019-04-04T09:40:07.694Z,30.52
2019-04-04T09:42:37.139Z,34.90
2019-04-04T09:45:09.681Z,30.20
2019-04-04T09:47:39.141Z,23.35
2019-04-04T09:50:08.717Z,26.12
2019-04-04T09:52:38.407Z,28.70
2019-04-04T09:55:08.412Z,31.82
2019-04-04T09:57:37.802Z,27.17
2019-04-04T10:00:14.456Z,25.43
2019-04-04T10:02:43.909Z,22.00
2019-04-04T10:05:13.576Z,23.07
2019-04-04T10:07:43.035Z,27.87
2019-04-04T10:13:12.365Z,32.23
2019-04-04T10:18:48.885Z,24.52
2019-04-04T10:21:18.263Z,30.75
2019-04-04T10:23:47.693Z,25.30
2019-04-04T10:26:17.150Z,20.82
2019-04-04T10:28:46.558Z,28.55
2019-04-04T10:31:16.031Z,39.10
2019-04-04T10:33:45.419Z,27.10
2019-04-04T10:36:14.801Z,25.37
2019-04-04T10:38:44.357Z,24.77
2019-04-04T10:41:13.788Z,33.40
2019-04-04T10:43:43.235Z,30.57
2019-04-04T10:46:12.607Z,25.45
2019-04-04T10:48:42.105Z,27.98
2019-04-04T10:51:11.544Z,20.73
2019-04-04T10:53:41.924Z,32.70
2019-04-04T10:56:11.362Z,27.77
2019-04-04T10:58:40.834Z,26.00
2019-04-04T11:01:10.229Z,17.32
2019-04-04T11:03:39.617Z,42.78
2019-04-04T11:06:09.008Z,23.85
2019-04-04T11:08:38.462Z,19.90
2019-04-04T11:11:07.918Z,24.37
2019-04-04T11:13:37.312Z,22.82
2019-04-04T11:16:29.500Z,32.65
2019-04-04T11:18:53.846Z,19.75
2019-04-04T11:21:24.045Z,22.82
2019-04-04T11:23:55.456Z,26.27
2019-04-04T11:26:30.462Z,22.87
2019-04-04T11:29:00.450Z,26.60
2019-04-04T11:31:39.093Z,26.77
2019-04-04T11:34:09.563Z,18.35
2019-04-04T11:36:39.028Z,24.12
2019-04-04T11:41:44.134Z,21.27
2019-04-04T11:44:16.830Z,26.97
2019-04-04T11:46:50.895Z,20.55
2019-04-04T11:49:20.588Z,23.15
2019-04-04T11:52:00.193Z,20.25
2019-04-04T11:54:40.530Z,22.75
2019-04-04T11:57:10.296Z,21.35
2019-04-04T11:59:47.758Z,19.63
2019-04-04T12:02:17.301Z,21.17
2019-04-04T12:04:46.834Z,25.50
2019-04-04T12:07:16.277Z,18.27
2019-04-04T12:10:07.376Z,21.37
2019-04-04T12:12:30.481Z,22.65
2019-04-04T12:15:00.500Z,18.52
2019-04-04T12:17:30.017Z,15.25
2019-04-04T12:19:59.554Z,21.70
2019-04-04T12:22:29.221Z,25.50
2019-04-04T12:24:58.753Z,19.90
2019-04-04T12:27:28.250Z,13.93
2019-04-04T12:29:57.866Z,18.85
2019-04-04T12:32:27.664Z,16.87
2019-04-04T12:34:57.176Z,13.30
2019-04-04T12:37:26.785Z,13.00
2019-04-04T12:39:56.442Z,18.67
2019-04-04T12:42:25.985Z,18.00
2019-04-04T12:44:55.560Z,19.90
2019-04-04T12:47:24.937Z,19.03
2019-04-04T12:49:54.438Z,29.77
2019-04-04T12:52:25.097Z,17.37
2019-04-04T12:54:54.548Z,20.23
2019-04-04T12:57:24.213Z,14.70
2019-04-04T12:59:53.726Z,15.83
2019-04-04T13:02:23.103Z,11.95
2019-04-04T13:04:52.483Z,16.95
2019-04-04T13:07:21.829Z,21.07
2019-04-04T13:09:51.292Z,18.02
2019-04-04T13:12:20.662Z,15.17
2019-04-04T13:14:50.159Z,19.67
2019-04-04T13:17:19.598Z,16.07
2019-04-04T13:19:48.983Z,30.50
2019-04-04T13:22:18.375Z,19.82
2019-04-04T13:24:47.756Z,18.30
2019-04-04T13:27:17.951Z,18.17
2019-04-04T13:29:47.471Z,17.52
2019-04-04T13:32:16.831Z,15.00
2019-04-04T13:34:58.369Z,20.02
2019-04-04T13:37:17.404Z,15.32
2019-04-04T13:40:06.216Z,17.57
2019-04-04T13:42:35.607Z,12.07
2019-04-04T13:45:06.245Z,12.80
2019-04-04T13:47:38.243Z,15.58
2019-04-04T13:50:07.909Z,13.30
2019-04-04T13:52:37.286Z,19.35
2019-04-04T13:55:06.888Z,17.07
2019-04-04T13:57:39.157Z,15.95
2019-04-04T14:00:08.607Z,20.23
2019-04-04T14:02:38.067Z,16.77
2019-04-04T14:05:10.586Z,15.60
2019-04-04T14:07:38.895Z,20.17
2019-04-04T14:10:08.266Z,18.13
2019-04-04T14:12:38.323Z,15.70
2019-04-04T14:15:21.667Z,13.58
2019-04-04T14:17:51.150Z,22.05
2019-04-04T14:20:20.529Z,16.67
2019-04-04T14:22:51.169Z,16.57
2019-04-04T14:25:20.905Z,14.87
2019-04-04T14:27:50.915Z,17.87
2019-04-04T14:30:20.390Z,12.25
2019-04-04T14:32:49.860Z,15.17
2019-04-04T14:35:40.334Z,14.80
2019-04-04T14:38:15.749Z,16.65
2019-04-04T14:41:11.621Z,15.70
2019-04-04T14:46:39.181Z,19.23
2019-04-04T14:49:08.189Z,12.28
2019-04-04T14:51:37.577Z,11.53
2019-04-04T14:54:06.962Z,22.40
2019-04-04T14:56:36.419Z,12.07
2019-04-04T14:59:05.855Z,17.05
2019-04-04T15:01:35.460Z,17.97
2019-04-04T15:04:04.869Z,16.57
2019-04-04T15:06:36.082Z,15.32
2019-04-04T15:09:07.524Z,12.87
2019-04-04T15:11:37.393Z,17.98
2019-04-04T15:14:08.064Z,16.27
2019-04-04T15:16:37.835Z,18.70
2019-04-04T15:19:07.541Z,16.15
2019-04-04T15:21:38.373Z,17.10
2019-04-04T15:24:07.970Z,20.92
2019-04-04T15:26:42.271Z,13.90
2019-04-04T15:29:12.287Z,19.80
2019-04-04T15:31:41.923Z,16.07
2019-04-04T15:34:11.956Z,19.23
2019-04-04T15:36:46.982Z,22.45
2019-04-04T15:39:16.431Z,13.03
2019-04-04T15:41:46.047Z,16.97
2019-04-04T15:44:15.687Z,13.83
2019-04-04T15:46:45.289Z,18.12
2019-04-04T15:49:14.967Z,25.73
2019-04-04T15:51:44.428Z,17.48
2019-04-04T15:54:14.075Z,20.77
2019-04-04T15:56:47.214Z,16.52
2019-04-04T15:59:18.494Z,22.07
2019-04-04T16:01:49.866Z,13.58
2019-04-04T16:04:19.698Z,18.37
2019-04-04T16:06:49.210Z,17.17
2019-04-04T16:09:22.848Z,17.70
2019-04-04T16:12:00.331Z,13.32
2019-04-04T16:14:33.703Z,15.30
2019-04-04T16:17:05.159Z,13.22
2019-04-04T16:19:35.434Z,20.15
2019-04-04T16:22:07.940Z,18.48
2019-04-04T16:24:37.497Z,19.30
2019-04-04T16:27:06.950Z,21.50
2019-04-04T16:29:59.535Z,15.83
2019-04-04T16:32:31.144Z,28.67
2019-04-04T16:35:00.827Z,14.60
2019-04-04T16:37:37.515Z,17.97
2019-04-04T16:40:09.487Z,19.07
2019-04-04T16:42:39.201Z,23.12
2019-04-04T16:45:08.752Z,18.23
2019-04-04T16:47:38.238Z,17.07
2019-04-04T16:50:07.807Z,55.35
2019-04-04T16:52:37.438Z,14.97
2019-04-04T16:55:07.037Z,18.77
2019-04-04T16:57:36.689Z,17.87
2019-04-04T17:00:08.596Z,19.73
2019-04-04T17:02:38.037Z,17.40
2019-04-04T17:05:10.652Z,19.77
2019-04-04T17:07:38.614Z,14.20
2019-04-04T17:10:08.528Z,17.10
2019-04-04T17:12:37.972Z,19.98
2019-04-04T17:15:07.835Z,19.95
2019-04-04T17:17:37.398Z,18.80
2019-04-04T17:20:07.152Z,17.65
2019-04-04T17:22:38.334Z,21.57
2019-04-04T17:25:07.856Z,19.67
2019-04-04T17:27:37.389Z,53.30
2019-04-04T17:30:06.965Z,23.17
2019-04-04T17:32:36.557Z,18.23
2019-04-04T17:35:08.972Z,60.00
2019-04-04T17:37:39.100Z,16.67
2019-04-04T17:40:10.021Z,18.90
2019-04-04T17:42:39.457Z,19.45
2019-04-04T17:45:09.414Z,25.35
2019-04-04T17:47:39.104Z,19.87
2019-04-04T17:50:10.779Z,19.30
2019-04-04T17:52:40.325Z,20.17
2019-04-04T17:55:09.779Z,20.82
2019-04-04T17:57:39.750Z,28.52
2019-04-04T18:00:10.150Z,21.70
2019-04-04T18:02:39.717Z,22.75
2019-04-04T18:05:10.855Z,20.43
2019-04-04T18:07:40.294Z,22.85
2019-04-04T18:10:09.921Z,24.30
2019-04-04T18:12:40.723Z,24.80
2019-04-04T18:15:10.580Z,21.10
2019-04-04T18:17:40.032Z,24.65
2019-04-04T18:20:09.600Z,23.80
2019-04-04T18:22:39.048Z,26.52
2019-04-04T18:25:08.486Z,21.45
2019-04-04T18:27:37.955Z,29.60
2019-04-04T18:30:10.192Z,22.90
2019-04-04T18:32:39.693Z,20.62
2019-04-04T18:35:16.116Z,27.47
2019-04-04T18:37:54.114Z,29.02
2019-04-04T18:40:25.654Z,23.18
2019-04-04T18:42:55.208Z,24.20
2019-04-04T18:45:24.568Z,34.73
2019-04-04T18:47:54.047Z,25.55
2019-04-04T18:50:23.586Z,25.68
2019-04-04T18:52:52.962Z,26.52
2019-04-04T18:55:22.355Z,27.52
2019-04-04T18:57:51.739Z,22.80
2019-04-04T19:00:21.147Z,22.95
2019-04-04T19:02:50.548Z,23.25
2019-04-04T19:05:19.934Z,26.02
2019-04-04T19:07:49.391Z,25.30
2019-04-04T19:10:18.758Z,23.60
2019-04-04T19:12:48.201Z,23.20
2019-04-04T19:15:17.559Z,27.85
2019-04-04T19:17:46.939Z,28.23
2019-04-04T19:20:16.333Z,31.60
2019-04-04T19:22:45.693Z,27.67
2019-04-04T19:25:15.074Z,33.90
2019-04-04T19:27:44.430Z,37.90
2019-04-04T19:30:14.892Z,38.38
2019-04-04T19:32:44.353Z,32.48
2019-04-04T19:35:13.858Z,28.25
2019-04-04T19:37:43.251Z,26.70
2019-04-04T19:40:12.618Z,29.18
2019-04-04T19:42:42.096Z,27.82
2019-04-04T19:45:11.525Z,30.02
2019-04-04T19:47:40.958Z,27.48
2019-04-04T19:50:10.609Z,28.35
2019-04-04T19:52:40.957Z,27.75
2019-04-04T19:55:10.425Z,28.80
2019-04-04T20:00:10.499Z,26.93
2019-04-04T20:05:08.568Z,17.95
2019-04-04T20:07:39.038Z,24.30
2019-04-04T20:10:09.730Z,20.80
2019-04-04T20:12:39.207Z,26.27
2019-04-04T20:15:08.830Z,22.70
2019-04-04T20:17:39.250Z,23.25
2019-04-04T20:20:08.712Z,28.27
2019-04-04T20:22:38.070Z,23.65
2019-04-04T20:25:07.462Z,26.27
2019-04-04T20:27:36.818Z,28.35
2019-04-04T20:30:08.054Z,21.60
2019-04-04T20:32:37.608Z,28.87
2019-04-04T20:35:07.654Z,25.68
2019-04-04T20:37:37.043Z,27.45
2019-04-04T20:40:06.574Z,24.47
2019-04-04T20:42:36.022Z,33.33
2019-04-04T20:45:05.833Z,28.73
2019-04-04T20:47:35.373Z,26.37
2019-04-04T20:50:06.418Z,25.60
2019-04-04T20:52:36.213Z,30.00
2019-04-04T20:55:06.325Z,30.27
2019-04-04T20:57:35.694Z,27.42
2019-04-04T21:00:06.719Z,26.42
2019-04-04T21:02:36.255Z,24.23
2019-04-04T21:05:08.701Z,23.70
2019-04-04T21:07:38.267Z,28.45
2019-04-04T21:10:07.657Z,23.60
2019-04-04T21:12:37.026Z,27.60
2019-04-04T21:15:06.995Z,29.20
2019-04-04T21:17:36.459Z,32.28
2019-04-04T21:20:08.547Z,29.75
2019-04-04T21:22:37.928Z,31.02
2019-04-04T21:25:07.296Z,36.42
2019-04-04T21:27:36.761Z,21.52
2019-04-04T21:30:07.518Z,26.12
2019-04-04T21:32:36.943Z,30.68
2019-04-04T21:35:07.417Z,23.00
2019-04-04T21:37:37.251Z,29.42
2019-04-04T21:40:06.927Z,29.85
2019-04-04T21:42:36.291Z,25.53
2019-04-04T21:45:06.826Z,25.48
2019-04-04T21:50:06.448Z,26.95
2019-04-04T21:52:36.684Z,30.55
2019-04-04T21:55:06.521Z,32.58
2019-04-04T21:57:35.922Z,28.65
2019-04-04T22:00:05.726Z,29.60
2019-04-04T22:02:56.155Z,30.85
2019-04-04T22:05:25.545Z,26.95
2019-04-04T22:07:54.906Z,29.02
2019-04-04T22:10:24.365Z,27.70
2019-04-04T22:12:54.006Z,30.23
2019-04-04T22:15:23.673Z,32.33
2019-04-04T22:17:53.329Z,34.30
2019-04-04T22:20:22.999Z,31.00
2019-04-04T22:22:52.666Z,32.10
2019-04-04T22:25:22.313Z,31.20
2019-04-04T22:27:51.981Z,29.40
2019-04-04T22:30:21.657Z,33.73
2019-04-04T22:32:51.278Z,34.97
2019-04-04T22:35:20.953Z,34.60
2019-04-04T22:37:50.645Z,33.43
2019-04-04T22:40:20.310Z,31.30
2019-04-04T22:49:16.233Z,33.60
2019-04-04T22:51:45.898Z,31.80
2019-04-04T22:54:15.653Z,37.13
2019-04-04T22:56:45.421Z,32.38
2019-04-04T22:59:15.106Z,39.08
2019-04-04T23:01:44.769Z,31.10
2019-04-04T23:04:14.435Z,37.35
2019-04-04T23:06:44.093Z,38.53
2019-04-04T23:09:13.770Z,38.27
2019-04-04T23:11:43.411Z,39.93
2019-04-04T23:14:13.072Z,44.33
2019-04-04T23:16:42.806Z,43.77
2019-04-04T23:19:12.534Z,35.93
2019-04-04T23:21:42.195Z,35.83
2019-04-04T23:24:31.240Z,34.60
2019-04-04T23:27:00.927Z,36.68
2019-04-04T23:29:30.537Z,34.70
2019-04-04T23:32:10.699Z,36.77
2019-04-04T23:34:40.368Z,36.63
2019-04-04T23:37:10.037Z,40.67
2019-04-04T23:39:39.715Z,34.47
2019-04-04T23:42:09.372Z,40.23
2019-04-04T23:44:39.043Z,38.07
2019-04-04T23:47:08.698Z,37.27
2019-04-04T23:49:39.656Z,35.53
2019-04-04T23:52:09.303Z,42.43
2019-04-04T23:54:38.982Z,39.60
2019-04-04T23:57:08.429Z,39.33
2019-04-04T23:59:37.863Z,37.63
